createdAt,value
2023-01-05T00:01:05.299Z,35.30
2023-01-05T00:03:33.393Z,34.92
2023-01-05T00:06:09.943Z,34.67
2023-01-05T00:08:38.133Z,36.25
2023-01-05T00:11:38.319Z,35.53
2023-01-05T00:14:25.313Z,34.97
2023-01-05T00:17:11.335Z,31.75
2023-01-05T00:19:57.148Z,36.83
2023-01-05T00:22:34.712Z,36.35
2023-01-05T00:25:12.211Z,34.35
2023-01-05T00:27:41.928Z,34.85
2023-01-05T00:30:15.043Z,36.22
2023-01-05T00:32:43.582Z,36.88
2023-01-05T00:35:12.646Z,36.40
2023-01-05T00:37:40.747Z,36.50
2023-01-05T00:40:11.169Z,37.42
2023-01-05T00:42:39.049Z,36.65
2023-01-05T00:45:09.302Z,37.45
2023-01-05T00:47:36.800Z,37.33
2023-01-05T00:50:05.187Z,35.85
2023-01-05T00:52:32.651Z,38.10
2023-01-05T00:55:00.114Z,39.10
2023-01-05T00:57:27.970Z,37.22
2023-01-05T00:59:56.494Z,37.67
2023-01-05T01:02:24.164Z,35.28
2023-01-05T01:04:51.640Z,34.67
2023-01-05T01:07:19.196Z,35.63
2023-01-05T01:09:46.571Z,36.35
2023-01-05T01:12:14.098Z,37.90
2023-01-05T01:14:41.513Z,35.13
2023-01-05T01:17:08.938Z,35.22
2023-01-05T01:19:37.028Z,34.20
2023-01-05T01:22:04.420Z,36.15
2023-01-05T01:24:31.872Z,35.45
2023-01-05T01:26:59.328Z,35.50
2023-01-05T01:29:26.885Z,38.00
2023-01-05T01:31:54.445Z,37.30
2023-01-05T01:34:21.991Z,37.63
2023-01-05T01:36:49.481Z,37.58
2023-01-05T01:39:21.336Z,38.80
2023-01-05T01:41:54.108Z,35.08
2023-01-05T01:44:48.735Z,36.88
2023-01-05T01:47:33.688Z,36.47
2023-01-05T01:50:07.027Z,37.08
2023-01-05T01:52:35.814Z,38.40
2023-01-05T01:55:04.930Z,38.00
2023-01-05T01:57:33.912Z,36.30
2023-01-05T02:00:03.837Z,36.67
2023-01-05T02:02:32.320Z,37.72
2023-01-05T02:05:04.993Z,38.28
2023-01-05T02:07:39.835Z,37.42
2023-01-05T02:10:07.838Z,38.15
2023-01-05T02:12:45.370Z,37.05
2023-01-05T02:15:50.615Z,39.33
2023-01-05T02:18:27.290Z,36.70
2023-01-05T02:21:13.210Z,36.50
2023-01-05T02:23:54.577Z,41.15
2023-01-05T02:26:41.575Z,41.58
2023-01-05T02:29:28.729Z,38.78
2023-01-05T02:32:22.195Z,38.67
2023-01-05T02:34:49.546Z,38.47
2023-01-05T02:37:30.541Z,37.47
2023-01-05T02:40:08.549Z,39.15
2023-01-05T02:42:40.416Z,36.08
2023-01-05T02:45:09.306Z,37.50
2023-01-05T02:47:44.122Z,37.38
2023-01-05T02:50:30.064Z,36.60
2023-01-05T02:53:04.172Z,36.60
2023-01-05T02:55:45.387Z,35.65
2023-01-05T02:58:20.032Z,33.50
2023-01-05T03:01:13.815Z,34.17
2023-01-05T03:04:14.310Z,33.92
2023-01-05T03:06:47.416Z,36.75
2023-01-05T03:09:25.996Z,36.67
2023-01-05T03:12:21.093Z,35.40
2023-01-05T03:14:57.818Z,35.47
2023-01-05T03:17:32.599Z,34.17
2023-01-05T03:20:01.346Z,35.13
2023-01-05T03:22:50.155Z,34.47
2023-01-05T03:25:42.873Z,36.35
2023-01-05T03:28:35.141Z,32.45
2023-01-05T03:31:42.588Z,35.80
2023-01-05T03:34:50.421Z,35.13
2023-01-05T03:37:31.430Z,34.45
2023-01-05T03:40:01.519Z,33.60
2023-01-05T03:42:36.546Z,34.88
2023-01-05T03:45:06.091Z,34.38
2023-01-05T03:47:34.370Z,34.30
2023-01-05T03:50:02.397Z,36.28
2023-01-05T03:52:31.619Z,35.33
2023-01-05T03:54:59.003Z,35.05
2023-01-05T03:57:26.761Z,33.45
2023-01-05T03:59:54.457Z,35.90
2023-01-05T04:02:22.034Z,38.45
2023-01-05T04:04:49.496Z,36.88
2023-01-05T04:07:17.187Z,35.97
2023-01-05T04:09:45.400Z,34.42
2023-01-05T04:12:13.838Z,36.75
2023-01-05T04:14:44.025Z,32.70
2023-01-05T04:17:11.410Z,35.67
2023-01-05T04:19:39.645Z,35.60
2023-01-05T04:22:08.443Z,36.60
2023-01-05T04:24:35.894Z,36.08
2023-01-05T04:27:04.949Z,35.35
2023-01-05T04:29:32.499Z,35.17
2023-01-05T04:32:01.267Z,36.40
2023-01-05T04:34:28.902Z,37.25
2023-01-05T04:36:57.992Z,34.03
2023-01-05T04:39:25.812Z,37.85
2023-01-05T04:41:55.279Z,34.15
2023-01-05T04:44:23.229Z,33.05
2023-01-05T04:46:51.134Z,35.33
2023-01-05T04:49:19.692Z,31.73
2023-01-05T04:51:49.914Z,34.40
2023-01-05T04:54:19.617Z,34.33
2023-01-05T04:56:47.681Z,34.42
2023-01-05T04:59:15.351Z,34.42
2023-01-05T05:01:44.367Z,33.60
2023-01-05T05:04:13.795Z,34.20
2023-01-05T05:06:41.496Z,33.80
2023-01-05T05:09:08.957Z,35.10
2023-01-05T05:11:38.941Z,35.60
2023-01-05T05:14:07.191Z,34.70
2023-01-05T05:16:34.604Z,34.50
2023-01-05T05:19:02.107Z,34.83
2023-01-05T05:21:29.685Z,33.42
2023-01-05T05:23:57.796Z,34.03
2023-01-05T05:26:25.265Z,34.55
2023-01-05T05:28:52.746Z,33.05
2023-01-05T05:31:20.231Z,30.52
2023-01-05T05:33:47.612Z,28.45
2023-01-05T05:36:15.522Z,27.63
2023-01-05T05:38:42.898Z,30.15
2023-01-05T05:41:10.477Z,27.58
2023-01-05T05:43:37.868Z,28.52
2023-01-05T05:46:05.460Z,27.15
2023-01-05T05:48:32.990Z,30.05
2023-01-05T05:51:00.533Z,30.42
2023-01-05T05:53:27.910Z,31.92
2023-01-05T05:55:55.321Z,33.67
2023-01-05T05:58:22.715Z,32.97
2023-01-05T06:00:50.201Z,33.85
2023-01-05T06:03:17.616Z,33.22
2023-01-05T06:05:45.886Z,33.47
2023-01-05T06:08:13.251Z,35.47
2023-01-05T06:10:40.662Z,31.88
2023-01-05T06:13:08.820Z,30.58
2023-01-05T06:15:36.192Z,33.08
2023-01-05T06:18:04.094Z,30.38
2023-01-05T06:20:31.505Z,29.27
2023-01-05T06:22:58.985Z,26.60
2023-01-05T06:25:26.408Z,27.50
2023-01-05T06:27:53.815Z,29.33
2023-01-05T06:30:21.221Z,27.80
2023-01-05T06:32:48.592Z,28.60
2023-01-05T06:35:16.093Z,28.33
2023-01-05T06:37:43.486Z,29.55
2023-01-05T06:40:12.052Z,27.45
2023-01-05T06:42:39.919Z,29.00
2023-01-05T06:45:08.194Z,31.05
2023-01-05T06:47:35.576Z,31.27
2023-01-05T06:50:02.985Z,28.83
2023-01-05T06:52:30.444Z,31.73
2023-01-05T06:54:57.822Z,31.48
2023-01-05T06:57:25.228Z,30.88
2023-01-05T06:59:52.595Z,33.42
2023-01-05T07:02:20.913Z,32.40
2023-01-05T07:04:48.341Z,29.20
2023-01-05T07:07:16.399Z,30.85
2023-01-05T07:09:49.133Z,30.33
2023-01-05T07:12:17.589Z,29.70
2023-01-05T07:14:45.120Z,28.80
2023-01-05T07:17:13.238Z,27.35
2023-01-05T07:19:40.845Z,29.17
2023-01-05T07:22:08.305Z,28.80
2023-01-05T07:24:35.751Z,28.08
2023-01-05T07:27:09.451Z,26.33
2023-01-05T07:29:37.315Z,27.40
2023-01-05T07:32:05.093Z,28.33
2023-01-05T07:34:32.688Z,44.10
2023-01-05T07:37:00.114Z,34.55
2023-01-05T07:39:27.531Z,29.20
2023-01-05T07:41:54.964Z,27.20
2023-01-05T07:44:25.693Z,27.15
2023-01-05T07:46:53.759Z,25.98
2023-01-05T07:49:21.179Z,25.77
2023-01-05T07:51:48.590Z,23.52
2023-01-05T07:54:16.034Z,23.13
2023-01-05T07:56:43.748Z,23.48
2023-01-05T07:59:11.160Z,23.00
2023-01-05T08:01:38.758Z,24.15
2023-01-05T08:04:06.233Z,24.35
2023-01-05T08:06:34.837Z,23.95
2023-01-05T08:09:22.184Z,22.27
2023-01-05T08:11:49.571Z,22.50
2023-01-05T08:14:17.016Z,24.15
2023-01-05T08:16:44.407Z,22.58
2023-01-05T08:19:12.033Z,23.40
2023-01-05T08:21:39.533Z,22.15
2023-01-05T08:24:07.334Z,22.30
2023-01-05T08:26:34.885Z,22.38
2023-01-05T08:29:02.627Z,23.13
2023-01-05T08:31:37.188Z,21.58
2023-01-05T08:34:05.520Z,23.60
2023-01-05T08:36:33.398Z,21.98
2023-01-05T08:39:04.151Z,20.63
2023-01-05T08:41:35.818Z,21.13
2023-01-05T08:44:10.836Z,21.48
2023-01-05T08:46:38.494Z,24.75
2023-01-05T08:49:09.424Z,21.88
2023-01-05T08:51:37.195Z,24.25
2023-01-05T08:54:04.723Z,24.35
2023-01-05T08:56:38.307Z,24.08
2023-01-05T08:59:07.103Z,23.98
2023-01-05T09:01:34.624Z,24.58
2023-01-05T09:04:02.140Z,25.52
2023-01-05T09:06:29.601Z,22.58
2023-01-05T09:08:57.096Z,24.42
2023-01-05T09:11:25.905Z,22.70
2023-01-05T09:13:56.846Z,24.35
2023-01-05T09:19:14.360Z,23.13
2023-01-05T09:21:41.820Z,21.75
2023-01-05T09:24:13.664Z,21.88
2023-01-05T09:26:42.760Z,22.58
2023-01-05T09:29:11.898Z,22.10
2023-01-05T09:31:44.144Z,23.00
2023-01-05T09:34:11.959Z,23.52
2023-01-05T09:36:39.370Z,22.92
2023-01-05T09:39:07.048Z,21.55
2023-01-05T09:41:40.523Z,24.88
2023-01-05T09:44:38.878Z,26.52
2023-01-05T09:47:32.433Z,26.30
2023-01-05T09:50:00.780Z,27.77
2023-01-05T09:52:34.375Z,29.65
2023-01-05T09:55:18.498Z,28.33
2023-01-05T09:57:51.133Z,28.98
2023-01-05T10:00:21.612Z,31.15
2023-01-05T10:03:02.395Z,33.13
2023-01-05T10:05:32.505Z,29.52
2023-01-05T10:08:16.875Z,30.33
2023-01-05T10:11:09.715Z,29.70
2023-01-05T10:13:42.908Z,28.95
2023-01-05T10:16:16.788Z,28.92
2023-01-05T10:18:45.627Z,29.27
2023-01-05T10:21:40.086Z,29.92
2023-01-05T10:24:24.343Z,27.08
2023-01-05T10:30:19.595Z,27.38
2023-01-05T10:33:25.802Z,27.08
2023-01-05T10:36:02.702Z,29.30
2023-01-05T10:38:50.463Z,26.38
2023-01-05T10:41:35.855Z,27.08
2023-01-05T10:44:34.034Z,27.27
2023-01-05T10:47:01.946Z,27.05
2023-01-05T10:49:32.270Z,25.67
2023-01-05T10:52:01.602Z,25.73
2023-01-05T10:54:54.540Z,28.85
2023-01-05T10:57:36.977Z,25.25
2023-01-05T11:00:12.971Z,27.52
2023-01-05T11:02:53.259Z,27.90
2023-01-05T11:05:23.637Z,26.15
2023-01-05T11:07:52.146Z,26.00
2023-01-05T11:10:27.394Z,25.77
2023-01-05T11:13:02.385Z,26.60
2023-01-05T11:15:33.887Z,25.23
2023-01-05T11:18:02.370Z,26.38
2023-01-05T11:20:30.208Z,28.40
2023-01-05T11:22:57.611Z,27.48
2023-01-05T11:25:33.267Z,30.67
2023-01-05T11:28:16.883Z,27.80
2023-01-05T11:31:06.848Z,27.67
2023-01-05T11:33:39.561Z,24.42
2023-01-05T11:36:07.568Z,26.10
2023-01-05T11:38:35.313Z,28.13
2023-01-05T11:41:02.851Z,27.75
2023-01-05T11:43:32.538Z,28.58
2023-01-05T11:46:03.099Z,26.00
2023-01-05T11:48:34.840Z,25.55
2023-01-05T11:51:02.970Z,25.75
2023-01-05T11:53:33.447Z,23.92
2023-01-05T11:56:22.825Z,25.67
2023-01-05T11:58:54.522Z,25.75
2023-01-05T12:01:21.997Z,26.45
2023-01-05T12:04:03.968Z,28.00
2023-01-05T12:06:52.885Z,26.67
2023-01-05T12:09:34.352Z,25.42
2023-01-05T12:12:30.496Z,25.40
2023-01-05T12:15:16.487Z,24.27
2023-01-05T12:17:43.864Z,23.63
2023-01-05T12:20:26.375Z,24.42
2023-01-05T12:25:50.131Z,23.67
2023-01-05T12:28:41.430Z,25.08
2023-01-05T12:33:44.392Z,25.70
2023-01-05T12:34:46.201Z,25.17
2023-01-05T12:37:22.553Z,25.88
2023-01-05T12:40:28.187Z,24.05
2023-01-05T12:43:07.849Z,25.30
2023-01-05T12:46:01.350Z,25.45
2023-01-05T12:48:43.879Z,24.55
2023-01-05T12:53:48.812Z,24.08
2023-01-05T12:56:34.304Z,24.05
2023-01-05T12:59:18.280Z,26.40
2023-01-05T13:01:57.004Z,25.30
2023-01-05T13:04:54.415Z,25.30
2023-01-05T13:07:30.370Z,24.67
2023-01-05T13:10:04.771Z,26.15
2023-01-05T13:12:34.219Z,25.52
2023-01-05T13:15:15.075Z,24.70
2023-01-05T13:17:51.834Z,26.88
2023-01-05T13:20:34.684Z,25.88
2023-01-05T13:23:10.100Z,25.48
2023-01-05T13:25:47.500Z,24.35
2023-01-05T13:28:20.615Z,25.02
2023-01-05T13:31:18.329Z,27.05
2023-01-05T13:33:54.352Z,25.33
2023-01-05T13:36:51.347Z,26.23
2023-01-05T13:39:49.442Z,25.17
2023-01-05T13:42:44.859Z,26.83
2023-01-05T13:45:12.172Z,26.13
2023-01-05T13:47:46.067Z,25.60
2023-01-05T13:50:40.640Z,24.17
2023-01-05T13:58:40.296Z,24.63
2023-01-05T14:01:18.370Z,24.45
2023-01-05T14:03:54.949Z,24.95
2023-01-05T14:06:29.740Z,25.52
2023-01-05T14:09:09.180Z,26.15
2023-01-05T14:11:37.048Z,24.88
2023-01-05T14:14:24.370Z,25.75
2023-01-05T14:16:53.071Z,25.63
2023-01-05T14:22:24.021Z,27.77
2023-01-05T14:24:52.423Z,27.63
2023-01-05T14:27:22.500Z,29.58
2023-01-05T14:35:20.192Z,27.13
2023-01-05T14:38:19.018Z,27.73
2023-01-05T14:40:51.283Z,28.63
2023-01-05T14:46:03.304Z,25.58
2023-01-05T14:48:58.606Z,27.92
2023-01-05T14:51:29.698Z,26.33
2023-01-05T14:54:03.295Z,29.45
2023-01-05T14:56:36.864Z,30.38
2023-01-05T14:59:24.039Z,32.40
2023-01-05T15:02:04.720Z,27.63
2023-01-05T15:04:36.419Z,29.27
2023-01-05T15:07:31.028Z,30.05
2023-01-05T15:10:24.716Z,29.00
2023-01-05T15:16:06.998Z,27.83
2023-01-05T15:19:15.025Z,29.35
2023-01-05T15:21:47.579Z,29.70
2023-01-05T15:24:20.357Z,30.05
2023-01-05T15:27:12.193Z,30.10
2023-01-05T15:29:47.578Z,37.80
2023-01-05T15:32:21.825Z,33.33
2023-01-05T15:35:29.149Z,32.85
2023-01-05T15:38:23.139Z,31.85
2023-01-05T15:40:58.703Z,32.78
2023-01-05T15:43:26.573Z,30.65
2023-01-05T15:45:54.403Z,29.85
2023-01-05T15:48:38.262Z,32.42
2023-01-05T15:51:06.317Z,32.20
2023-01-05T15:53:40.832Z,33.78
2023-01-05T15:56:25.753Z,34.63
2023-01-05T15:58:54.041Z,36.72
2023-01-05T16:01:21.623Z,36.00
2023-01-05T16:03:50.420Z,36.80
2023-01-05T16:06:28.075Z,36.35
2023-01-05T16:09:00.114Z,33.67
2023-01-05T16:11:46.496Z,38.50
2023-01-05T16:14:20.904Z,40.45
2023-01-05T16:16:54.755Z,42.65
2023-01-05T16:19:39.435Z,37.83
2023-01-05T16:22:12.831Z,37.90
2023-01-05T16:24:57.508Z,37.17
2023-01-05T16:27:25.099Z,37.60
2023-01-05T16:29:52.615Z,40.85
2023-01-05T16:32:26.252Z,41.20
2023-01-05T16:35:20.589Z,42.45
2023-01-05T16:38:09.940Z,41.63
2023-01-05T16:40:46.630Z,36.95
2023-01-05T16:43:32.020Z,36.58
2023-01-05T16:46:20.851Z,36.60
2023-01-05T16:49:13.479Z,40.42
2023-01-05T16:51:41.680Z,37.00
2023-01-05T16:54:19.018Z,34.90
2023-01-05T16:56:57.790Z,35.53
2023-01-05T16:59:31.743Z,35.50
2023-01-05T17:01:59.472Z,34.80
2023-01-05T17:04:27.030Z,36.70
2023-01-05T17:06:54.548Z,37.90
2023-01-05T17:09:27.552Z,38.20
2023-01-05T17:11:55.153Z,42.50
2023-01-05T17:14:23.664Z,45.40
2023-01-05T17:16:51.089Z,47.08
2023-01-05T17:19:21.376Z,41.13
2023-01-05T17:22:04.650Z,38.70
2023-01-05T17:24:32.485Z,38.25
2023-01-05T17:27:00.456Z,39.45
2023-01-05T17:29:31.893Z,38.72
2023-01-05T17:31:59.304Z,37.85
2023-01-05T17:34:26.654Z,38.80
2023-01-05T17:36:57.245Z,38.30
2023-01-05T17:39:25.429Z,39.97
2023-01-05T17:41:53.150Z,39.08
2023-01-05T17:44:20.476Z,39.40
2023-01-05T17:46:48.132Z,39.67
2023-01-05T17:49:18.600Z,42.13
2023-01-05T17:51:46.974Z,42.53
2023-01-05T17:54:14.815Z,42.42
2023-01-05T17:56:42.253Z,43.53
2023-01-05T17:59:09.636Z,44.97
2023-01-05T18:01:37.226Z,43.85
2023-01-05T18:04:04.783Z,42.60
2023-01-05T18:06:32.165Z,43.75
2023-01-05T18:08:59.574Z,44.72
2023-01-05T18:11:27.245Z,42.05
2023-01-05T18:13:54.655Z,42.90
2023-01-05T18:16:22.172Z,46.42
2023-01-05T18:18:49.580Z,42.47
2023-01-05T18:21:16.937Z,44.67
2023-01-05T18:23:44.349Z,45.80
2023-01-05T18:26:11.704Z,42.90
2023-01-05T18:28:39.408Z,43.00
2023-01-05T18:31:14.467Z,44.28
2023-01-05T18:33:42.149Z,46.08
2023-01-05T18:36:14.280Z,40.88
2023-01-05T18:38:43.149Z,42.33
2023-01-05T18:41:12.688Z,42.72
2023-01-05T18:43:41.493Z,42.17
2023-01-05T18:46:10.130Z,43.58
2023-01-05T18:48:38.568Z,44.28
2023-01-05T18:51:08.141Z,42.78
2023-01-05T18:53:38.688Z,44.60
2023-01-05T18:56:07.987Z,42.08
2023-01-05T18:58:35.440Z,42.42
2023-01-05T19:01:09.567Z,44.50
2023-01-05T19:03:37.019Z,45.03
2023-01-05T19:06:09.547Z,49.53
2023-01-05T19:08:37.349Z,45.33
2023-01-05T19:11:15.291Z,46.40
2023-01-05T19:13:45.257Z,42.92
2023-01-05T19:16:15.209Z,45.78
2023-01-05T19:18:44.299Z,45.45
2023-01-05T19:21:11.662Z,43.67
2023-01-05T19:23:39.103Z,44.25
2023-01-05T19:26:07.442Z,46.22
2023-01-05T19:28:36.607Z,47.80
2023-01-05T19:31:14.871Z,47.72
2023-01-05T19:33:42.811Z,42.10
2023-01-05T19:36:13.007Z,41.33
2023-01-05T19:38:41.121Z,42.78
2023-01-05T19:41:23.152Z,47.08
2023-01-05T19:43:53.580Z,43.53
2023-01-05T19:46:22.957Z,42.03
2023-01-05T19:48:50.737Z,43.72
2023-01-05T19:51:23.760Z,46.92
2023-01-05T19:54:00.153Z,41.60
2023-01-05T19:56:33.561Z,43.80
2023-01-05T19:59:03.886Z,44.17
2023-01-05T20:01:33.709Z,43.10
2023-01-05T20:04:01.867Z,44.75
2023-01-05T20:06:32.056Z,49.03
2023-01-05T20:09:02.125Z,45.03
2023-01-05T20:11:42.988Z,47.38
2023-01-05T20:14:27.885Z,45.17
2023-01-05T20:16:57.817Z,43.13
2023-01-05T20:19:26.839Z,46.33
2023-01-05T20:21:55.368Z,46.63
2023-01-05T20:24:25.358Z,47.47
2023-01-05T20:26:55.412Z,45.88
2023-01-05T20:29:25.946Z,48.75
2023-01-05T20:32:24.526Z,49.03
2023-01-05T20:34:55.538Z,48.35
2023-01-05T20:37:23.861Z,46.70
2023-01-05T20:39:51.484Z,43.65
2023-01-05T20:42:18.896Z,44.47
2023-01-05T20:44:47.579Z,46.20
2023-01-05T20:47:15.334Z,46.20
2023-01-05T20:49:45.287Z,47.70
2023-01-05T20:52:15.040Z,46.75
2023-01-05T20:54:42.459Z,45.88
2023-01-05T20:57:10.567Z,44.67
2023-01-05T20:59:39.031Z,47.63
2023-01-05T21:02:18.399Z,46.65
2023-01-05T21:04:50.961Z,45.70
2023-01-05T21:07:18.775Z,44.55
2023-01-05T21:09:46.239Z,47.60
2023-01-05T21:12:13.608Z,46.33
2023-01-05T21:14:40.996Z,50.40
2023-01-05T21:17:08.640Z,49.33
2023-01-05T21:19:36.034Z,50.67
2023-01-05T21:22:03.603Z,50.08
2023-01-05T21:24:31.049Z,48.72
2023-01-05T21:26:58.384Z,46.60
2023-01-05T21:29:26.453Z,51.13
2023-01-05T21:31:55.859Z,50.13
2023-01-05T21:34:23.763Z,47.20
2023-01-05T21:36:51.371Z,49.10
2023-01-05T21:39:21.919Z,48.28
2023-01-05T21:42:09.366Z,45.55
2023-01-05T21:44:37.330Z,47.88
2023-01-05T21:47:06.698Z,46.10
2023-01-05T21:49:36.575Z,46.63
2023-01-05T21:52:23.891Z,44.75
2023-01-05T21:55:09.695Z,46.95
2023-01-05T21:57:37.198Z,45.10
2023-01-05T22:00:06.314Z,46.17
2023-01-05T22:02:34.335Z,49.83
2023-01-05T22:05:01.776Z,46.53
2023-01-05T22:07:29.253Z,44.88
2023-01-05T22:09:56.705Z,46.42
2023-01-05T22:12:24.182Z,47.95
2023-01-05T22:14:51.566Z,45.17
2023-01-05T22:17:19.017Z,43.38
2023-01-05T22:19:46.476Z,46.15
2023-01-05T22:22:14.018Z,44.83
2023-01-05T22:24:41.419Z,46.35
2023-01-05T22:27:08.786Z,44.22
2023-01-05T22:29:36.176Z,44.35
2023-01-05T22:32:03.780Z,87.38
2023-01-05T22:34:31.328Z,61.30
2023-01-05T22:36:59.659Z,44.75
2023-01-05T22:39:27.033Z,43.25
2023-01-05T22:41:54.410Z,43.20
2023-01-05T22:44:21.802Z,44.85
2023-01-05T22:46:49.187Z,44.67
2023-01-05T22:49:16.815Z,43.97
2023-01-05T22:51:46.247Z,45.38
2023-01-05T22:54:13.678Z,45.00
2023-01-05T22:56:41.136Z,45.58
2023-01-05T22:59:08.742Z,44.22
2023-01-05T23:01:39.102Z,45.33
2023-01-05T23:04:07.297Z,44.92
2023-01-05T23:06:35.266Z,44.38
2023-01-05T23:09:04.859Z,47.50
2023-01-05T23:11:37.837Z,46.83
2023-01-05T23:14:07.717Z,43.42
2023-01-05T23:16:35.802Z,45.25
2023-01-05T23:19:05.880Z,43.88
2023-01-05T23:21:34.084Z,45.55
2023-01-05T23:24:01.520Z,46.28
2023-01-05T23:26:29.548Z,43.90
2023-01-05T23:28:57.150Z,42.05
2023-01-05T23:31:24.794Z,42.47
2023-01-05T23:33:52.228Z,44.63
2023-01-05T23:36:21.440Z,43.45
2023-01-05T23:38:48.883Z,43.00
2023-01-05T23:41:17.630Z,42.40
2023-01-05T23:43:46.120Z,42.10
2023-01-05T23:46:20.349Z,44.35
2023-01-05T23:48:48.973Z,44.28
2023-01-05T23:51:18.183Z,43.88
2023-01-05T23:53:53.427Z,44.22
2023-01-05T23:56:23.686Z,43.40
2023-01-05T23:59:05.352Z,45.40
